createdAt,value
2018-08-09T00:00:23.669Z,91.40
2018-08-09T00:02:57.230Z,91.50
2018-08-09T00:05:30.653Z,91.30
2018-08-09T00:08:04.141Z,91.30
2018-08-09T00:10:37.664Z,91.20
2018-08-09T00:13:11.148Z,91.50
2018-08-09T00:15:44.543Z,91.00
2018-08-09T00:18:17.975Z,90.90
2018-08-09T00:20:51.395Z,91.10
2018-08-09T00:23:24.800Z,91.00
2018-08-09T00:25:58.192Z,91.20
2018-08-09T00:28:31.639Z,91.40
2018-08-09T00:31:05.061Z,91.50
2018-08-09T00:33:38.476Z,91.50
2018-08-09T00:36:11.885Z,91.60
2018-08-09T00:38:45.311Z,91.40
2018-08-09T00:41:18.757Z,91.30
2018-08-09T00:43:52.170Z,91.30
2018-08-09T00:46:25.693Z,91.50
2018-08-09T00:48:59.108Z,91.60
2018-08-09T00:51:32.596Z,91.70
2018-08-09T00:54:06.475Z,91.60
2018-08-09T00:56:39.929Z,91.80
2018-08-09T00:59:13.318Z,91.70
2018-08-09T01:01:46.775Z,91.80
2018-08-09T01:04:20.230Z,91.80
2018-08-09T01:06:53.715Z,91.70
2018-08-09T01:09:27.167Z,91.70
2018-08-09T01:12:00.608Z,91.60
2018-08-09T01:14:34.022Z,91.60
2018-08-09T01:17:07.497Z,91.60
2018-08-09T01:19:40.994Z,91.60
2018-08-09T01:22:14.424Z,91.80
2018-08-09T01:24:47.824Z,91.90
2018-08-09T01:27:21.283Z,91.90
2018-08-09T01:29:54.704Z,92.00
2018-08-09T01:32:28.123Z,92.30
2018-08-09T01:35:01.538Z,92.40
2018-08-09T01:37:34.991Z,92.40
2018-08-09T01:40:08.411Z,92.60
2018-08-09T01:42:53.627Z,92.30
2018-08-09T01:45:27.060Z,92.30
2018-08-09T01:48:00.445Z,91.80
2018-08-09T01:50:33.891Z,91.80
2018-08-09T01:53:07.308Z,91.70
2018-08-09T01:55:40.736Z,92.30
2018-08-09T01:58:14.160Z,92.20
2018-08-09T02:00:47.574Z,92.30
2018-08-09T02:03:21.003Z,92.30
2018-08-09T02:05:54.440Z,92.40
2018-08-09T02:08:27.907Z,92.30
2018-08-09T02:11:01.355Z,92.40
2018-08-09T02:13:34.812Z,92.50
2018-08-09T02:16:08.233Z,92.50
2018-08-09T02:18:41.672Z,92.50
2018-08-09T02:21:15.126Z,92.60
2018-08-09T02:23:48.549Z,92.70
2018-08-09T02:26:21.981Z,92.70
2018-08-09T02:28:55.441Z,92.70
2018-08-09T02:31:28.868Z,92.70
2018-08-09T02:34:02.275Z,92.60
2018-08-09T02:36:35.737Z,92.50
2018-08-09T02:39:10.262Z,92.70
2018-08-09T02:41:43.699Z,92.70
2018-08-09T02:44:17.110Z,92.70
2018-08-09T02:46:50.525Z,92.60
2018-08-09T02:49:23.936Z,92.70
2018-08-09T02:51:57.383Z,92.70
2018-08-09T02:54:30.792Z,92.70
2018-08-09T02:57:04.256Z,92.70
2018-08-09T02:59:37.677Z,92.70
2018-08-09T03:02:11.161Z,92.70
2018-08-09T03:04:44.565Z,92.80
2018-08-09T03:07:17.980Z,92.80
2018-08-09T03:09:51.385Z,92.60
2018-08-09T03:12:24.807Z,92.40
2018-08-09T03:14:58.225Z,91.70
2018-08-09T03:17:31.652Z,91.90
2018-08-09T03:20:05.128Z,92.50
2018-08-09T03:22:38.526Z,92.60
2018-08-09T03:25:11.968Z,92.70
2018-08-09T03:27:45.373Z,92.80
2018-08-09T03:30:18.765Z,92.80
2018-08-09T03:32:52.225Z,92.90
2018-08-09T03:35:25.639Z,92.90
2018-08-09T03:37:59.071Z,92.90
2018-08-09T03:40:32.507Z,92.70
2018-08-09T03:43:06.185Z,92.30
2018-08-09T03:45:39.685Z,92.30
2018-08-09T03:48:13.113Z,92.30
2018-08-09T03:50:46.536Z,92.20
2018-08-09T03:53:19.940Z,92.50
2018-08-09T03:55:53.388Z,92.70
2018-08-09T03:58:26.812Z,92.70
2018-08-09T04:01:00.240Z,92.70
2018-08-09T04:03:33.684Z,92.80
2018-08-09T04:06:07.169Z,92.70
2018-08-09T04:08:40.601Z,92.40
2018-08-09T04:11:14.029Z,92.30
2018-08-09T04:13:47.413Z,92.20
2018-08-09T04:16:20.880Z,91.90
2018-08-09T04:18:54.492Z,91.80
2018-08-09T04:21:27.971Z,91.70
2018-08-09T04:24:01.579Z,91.80
2018-08-09T04:26:35.117Z,91.80
2018-08-09T04:29:08.408Z,91.70
2018-08-09T04:31:41.834Z,91.70
2018-08-09T04:34:15.240Z,91.50
2018-08-09T04:36:48.659Z,91.50
2018-08-09T04:39:22.105Z,91.70
2018-08-09T04:41:55.521Z,91.80
2018-08-09T04:44:28.952Z,91.70
2018-08-09T04:47:02.367Z,91.60
2018-08-09T04:49:35.789Z,91.40
2018-08-09T04:52:09.221Z,91.20
2018-08-09T04:54:42.640Z,91.10
2018-08-09T04:57:16.019Z,90.80
2018-08-09T04:59:49.476Z,90.70
2018-08-09T05:02:22.959Z,90.60
2018-08-09T05:04:56.421Z,90.70
2018-08-09T05:07:29.852Z,90.60
2018-08-09T05:10:09.693Z,90.60
2018-08-09T05:12:43.184Z,90.60
2018-08-09T05:15:16.654Z,90.40
2018-08-09T05:17:50.081Z,90.40
2018-08-09T05:20:23.517Z,90.30
2018-08-09T05:22:56.920Z,90.40
2018-08-09T05:25:30.396Z,90.40
2018-08-09T05:28:03.862Z,90.50
2018-08-09T05:30:37.254Z,90.50
2018-08-09T05:33:10.683Z,90.50
2018-08-09T05:35:44.105Z,90.80
2018-08-09T05:38:17.552Z,90.40
2018-08-09T05:40:50.990Z,90.20
2018-08-09T05:43:24.439Z,89.00
2018-08-09T05:45:58.657Z,85.80
2018-08-09T05:48:32.112Z,84.50
2018-08-09T05:51:05.549Z,83.10
2018-08-09T05:53:39.030Z,80.70
2018-08-09T05:56:12.429Z,78.90
2018-08-09T05:58:45.913Z,77.20
2018-08-09T06:01:19.323Z,76.50
2018-08-09T06:03:52.837Z,73.10
2018-08-09T06:06:26.303Z,67.40
2018-08-09T06:08:59.722Z,63.50
2018-08-09T06:11:33.155Z,63.10
2018-08-09T06:14:07.049Z,61.50
2018-08-09T06:16:40.860Z,63.60
2018-08-09T06:19:14.278Z,64.20
2018-08-09T06:21:47.722Z,66.80
2018-08-09T06:24:21.130Z,68.10
2018-08-09T06:26:54.590Z,69.20
2018-08-09T06:29:28.040Z,71.10
2018-08-09T06:32:01.509Z,71.80
2018-08-09T06:34:34.916Z,70.30
2018-08-09T06:37:08.395Z,67.50
2018-08-09T06:39:41.841Z,65.90
2018-08-09T06:42:15.367Z,63.80
2018-08-09T06:44:48.762Z,62.20
2018-08-09T06:47:22.253Z,61.00
2018-08-09T06:49:55.649Z,60.60
2018-08-09T06:52:29.085Z,59.90
2018-08-09T06:55:02.682Z,59.60
2018-08-09T06:57:36.545Z,57.90
2018-08-09T07:00:12.133Z,56.20
2018-08-09T07:02:45.589Z,52.20
2018-08-09T07:05:19.032Z,49.80
2018-08-09T07:07:52.441Z,46.40
2018-08-09T07:10:25.881Z,46.80
2018-08-09T07:12:59.308Z,46.50
2018-08-09T07:15:32.752Z,46.00
2018-08-09T07:18:06.532Z,44.90
2018-08-09T07:20:39.981Z,45.50
2018-08-09T07:23:13.413Z,45.60
2018-08-09T07:25:46.931Z,44.30
2018-08-09T07:28:20.353Z,43.20
2018-08-09T07:30:53.881Z,43.30
2018-08-09T07:33:27.345Z,43.40
2018-08-09T07:36:00.974Z,43.50
2018-08-09T07:38:34.389Z,42.30
2018-08-09T07:41:07.849Z,41.30
2018-08-09T07:43:41.284Z,41.20
2018-08-09T07:46:14.725Z,42.50
2018-08-09T07:48:48.209Z,42.30
2018-08-09T07:51:21.633Z,41.60
2018-08-09T07:53:55.091Z,40.00
2018-08-09T07:56:28.600Z,39.40
2018-08-09T07:59:02.052Z,39.90
2018-08-09T08:01:35.463Z,40.10
2018-08-09T08:04:08.927Z,38.80
2018-08-09T08:06:42.373Z,39.40
2018-08-09T08:09:15.810Z,39.70
2018-08-09T08:11:49.280Z,39.80
2018-08-09T08:14:22.760Z,40.30
2018-08-09T08:16:56.188Z,40.70
2018-08-09T08:19:29.706Z,41.00
2018-08-09T08:22:03.195Z,41.10
2018-08-09T08:24:36.663Z,40.60
2018-08-09T08:27:10.169Z,39.80
2018-08-09T08:29:43.637Z,40.20
2018-08-09T08:32:17.073Z,40.20
2018-08-09T08:34:50.528Z,40.60
2018-08-09T08:37:23.961Z,40.70
2018-08-09T08:39:57.399Z,40.10
2018-08-09T08:42:30.857Z,40.80
2018-08-09T08:45:05.801Z,40.50
2018-08-09T08:47:39.257Z,40.30
2018-08-09T08:50:13.084Z,40.30
2018-08-09T08:52:46.557Z,40.10
2018-08-09T08:55:20.057Z,39.90
2018-08-09T08:57:53.507Z,40.30
2018-08-09T09:00:26.931Z,39.70
2018-08-09T09:03:00.420Z,39.60
2018-08-09T09:05:33.890Z,40.30
2018-08-09T09:08:07.389Z,39.50
2018-08-09T09:10:40.804Z,40.50
2018-08-09T09:13:14.299Z,40.20
2018-08-09T09:15:47.720Z,40.60
2018-08-09T09:18:21.329Z,40.00
2018-08-09T09:20:54.769Z,40.20
2018-08-09T09:23:28.206Z,40.30
2018-08-09T09:26:01.652Z,39.60
2018-08-09T09:28:35.110Z,38.80
2018-08-09T09:31:08.646Z,39.50
2018-08-09T09:33:42.038Z,40.50
2018-08-09T09:36:15.496Z,40.40
2018-08-09T09:38:48.897Z,40.00
2018-08-09T09:41:22.349Z,39.90
2018-08-09T09:43:55.737Z,38.20
2018-08-09T09:46:29.217Z,38.20
2018-08-09T09:49:02.696Z,36.50
2018-08-09T09:51:36.147Z,37.20
2018-08-09T09:54:09.566Z,36.70
2018-08-09T09:56:43.013Z,37.50
2018-08-09T09:59:16.434Z,38.10
2018-08-09T10:01:49.964Z,37.70
2018-08-09T10:04:23.350Z,38.00
2018-08-09T10:06:56.825Z,37.70
2018-08-09T10:09:30.282Z,38.80
2018-08-09T10:12:03.756Z,39.20
2018-08-09T10:14:37.167Z,38.80
2018-08-09T10:17:10.604Z,38.50
2018-08-09T10:19:44.083Z,38.90
2018-08-09T10:22:17.500Z,38.80
2018-08-09T10:24:50.919Z,38.90
2018-08-09T10:27:24.389Z,38.80
2018-08-09T10:29:57.917Z,39.00
2018-08-09T10:32:31.293Z,39.90
2018-08-09T10:35:04.785Z,38.00
2018-08-09T10:37:38.219Z,37.50
2018-08-09T10:40:11.691Z,38.10
2018-08-09T10:42:45.134Z,37.90
2018-08-09T10:45:18.704Z,38.30
2018-08-09T10:47:52.014Z,38.40
2018-08-09T10:50:25.465Z,38.70
2018-08-09T10:52:58.877Z,38.70
2018-08-09T10:55:32.385Z,38.10
2018-08-09T10:58:05.901Z,38.70
2018-08-09T11:00:39.341Z,37.80
2018-08-09T11:03:12.781Z,37.60
2018-08-09T11:05:46.234Z,37.90
2018-08-09T11:08:19.645Z,37.60
2018-08-09T11:10:53.106Z,37.70
2018-08-09T11:13:26.515Z,37.50
2018-08-09T11:15:59.935Z,38.00
2018-08-09T11:18:33.366Z,37.90
2018-08-09T11:21:06.936Z,37.90
2018-08-09T11:23:40.392Z,38.30
2018-08-09T11:26:13.817Z,37.80
2018-08-09T11:28:47.240Z,37.30
2018-08-09T11:31:20.678Z,37.30
2018-08-09T11:33:54.090Z,37.00
2018-08-09T11:36:27.575Z,37.50
2018-08-09T11:39:00.968Z,37.80
2018-08-09T11:41:34.437Z,37.90
2018-08-09T11:44:08.494Z,37.50
2018-08-09T11:46:41.948Z,37.00
2018-08-09T11:49:15.454Z,36.40
2018-08-09T11:51:49.351Z,37.20
2018-08-09T11:54:22.758Z,37.20
2018-08-09T11:56:56.202Z,37.80
2018-08-09T11:59:29.669Z,36.60
2018-08-09T12:02:03.196Z,36.30
2018-08-09T12:04:36.633Z,36.40
2018-08-09T12:07:10.312Z,36.30
2018-08-09T12:09:43.753Z,36.20
2018-08-09T12:12:17.189Z,36.40
2018-08-09T12:14:50.648Z,36.40
2018-08-09T12:17:24.093Z,36.70
2018-08-09T12:19:57.572Z,36.50
2018-08-09T12:22:31.040Z,36.30
2018-08-09T12:25:05.032Z,35.30
2018-08-09T12:27:38.559Z,34.50
2018-08-09T12:30:14.045Z,35.50
2018-08-09T12:32:47.581Z,36.60
2018-08-09T12:35:21.010Z,36.20
2018-08-09T12:37:54.608Z,35.20
2018-08-09T12:40:28.137Z,35.30
2018-08-09T12:43:01.631Z,34.60
2018-08-09T12:45:35.109Z,34.40
2018-08-09T12:48:08.594Z,33.90
2018-08-09T12:51:44.961Z,33.60
2018-08-09T12:54:18.433Z,33.00
2018-08-09T12:56:51.970Z,33.20
2018-08-09T12:59:25.427Z,33.40
2018-08-09T13:01:58.885Z,31.90
2018-08-09T13:04:32.412Z,31.90
2018-08-09T13:07:06.193Z,32.20
2018-08-09T13:09:39.723Z,32.10
2018-08-09T13:12:13.241Z,32.20
2018-08-09T13:14:46.758Z,31.20
2018-08-09T13:17:20.174Z,31.30
2018-08-09T13:19:53.629Z,32.50
2018-08-09T13:22:27.126Z,32.40
2018-08-09T13:25:00.628Z,32.60
2018-08-09T13:27:34.251Z,33.10
2018-08-09T13:30:10.296Z,33.00
2018-08-09T13:32:44.711Z,32.40
2018-08-09T13:35:18.157Z,31.70
2018-08-09T13:37:51.707Z,32.70
2018-08-09T13:40:25.235Z,32.20
2018-08-09T13:42:58.785Z,32.80
2018-08-09T13:45:32.270Z,32.90
2018-08-09T13:48:06.087Z,32.70
2018-08-09T13:50:39.520Z,31.30
2018-08-09T13:53:13.057Z,32.20
2018-08-09T13:55:46.551Z,32.50
2018-08-09T13:58:20.258Z,32.10
2018-08-09T14:00:53.749Z,32.80
2018-08-09T14:03:27.341Z,33.70
2018-08-09T14:06:00.820Z,37.80
2018-08-09T14:08:34.322Z,39.80
2018-08-09T14:11:07.822Z,42.00
2018-08-09T14:13:41.284Z,43.70
2018-08-09T14:16:14.765Z,45.10
2018-08-09T14:18:48.213Z,45.60
2018-08-09T14:21:21.780Z,46.20
2018-08-09T14:23:55.247Z,46.70
2018-08-09T14:26:28.732Z,47.50
2018-08-09T14:29:02.246Z,48.10
2018-08-09T14:31:35.990Z,48.60
2018-08-09T14:34:09.541Z,49.40
2018-08-09T14:36:43.024Z,50.10
2018-08-09T14:39:16.592Z,50.40
2018-08-09T14:41:50.057Z,50.20
2018-08-09T14:44:23.533Z,50.10
2018-08-09T14:46:57.055Z,50.10
2018-08-09T14:49:30.512Z,50.40
2018-08-09T14:52:04.158Z,51.60
2018-08-09T14:54:37.717Z,51.60
2018-08-09T14:57:11.289Z,51.40
2018-08-09T14:59:44.843Z,51.80
2018-08-09T15:02:18.595Z,52.00
2018-08-09T15:04:52.091Z,52.50
2018-08-09T15:07:25.554Z,52.80
2018-08-09T15:09:59.183Z,53.70
2018-08-09T15:12:32.758Z,54.10
2018-08-09T15:15:08.398Z,54.50
2018-08-09T15:17:41.999Z,54.60
2018-08-09T15:20:15.458Z,54.80
2018-08-09T15:22:48.956Z,54.60
2018-08-09T15:25:22.476Z,54.20
2018-08-09T15:27:55.985Z,55.40
2018-08-09T15:30:29.496Z,56.30
2018-08-09T15:33:03.164Z,56.30
2018-08-09T15:35:36.664Z,57.00
2018-08-09T15:38:10.245Z,57.20
2018-08-09T15:40:43.668Z,57.30
2018-08-09T15:43:17.174Z,57.60
2018-08-09T15:45:50.661Z,57.10
2018-08-09T15:48:24.179Z,56.90
2018-08-09T15:50:57.621Z,57.80
2018-08-09T15:53:31.148Z,57.00
2018-08-09T15:56:04.646Z,57.50
2018-08-09T15:58:38.194Z,57.00
2018-08-09T16:01:11.705Z,56.80
2018-08-09T16:03:45.269Z,56.60
2018-08-09T16:06:18.774Z,56.00
2018-08-09T16:08:52.258Z,55.40
2018-08-09T16:11:25.812Z,55.70
2018-08-09T16:13:59.260Z,55.90
2018-08-09T16:16:32.821Z,56.40
2018-08-09T16:19:06.284Z,55.90
2018-08-09T16:21:39.835Z,56.30
2018-08-09T16:24:13.351Z,56.60
2018-08-09T16:26:46.875Z,56.80
2018-08-09T16:29:20.410Z,56.90
2018-08-09T16:31:53.918Z,56.90
2018-08-09T16:34:27.417Z,57.10
2018-08-09T16:37:00.921Z,57.40
2018-08-09T16:39:34.372Z,58.00
2018-08-09T16:42:07.943Z,57.90
2018-08-09T16:44:41.530Z,58.80
2018-08-09T16:47:14.997Z,59.10
2018-08-09T16:49:48.501Z,58.80
2018-08-09T16:52:21.939Z,58.70
2018-08-09T16:54:55.450Z,58.70
2018-08-09T16:57:28.929Z,58.70
2018-08-09T17:00:02.462Z,58.70
2018-08-09T17:02:36.321Z,58.40
2018-08-09T17:05:16.924Z,58.50
2018-08-09T17:07:50.544Z,58.60
2018-08-09T17:10:24.939Z,58.80
2018-08-09T17:12:58.424Z,59.20
2018-08-09T17:15:31.976Z,58.80
2018-08-09T17:18:05.564Z,59.20
2018-08-09T17:20:39.073Z,59.20
2018-08-09T17:23:12.533Z,58.80
2018-08-09T17:25:46.034Z,59.40
2018-08-09T17:28:19.598Z,60.00
2018-08-09T17:30:53.177Z,60.10
2018-08-09T17:33:26.687Z,59.90
2018-08-09T17:36:00.223Z,60.10
2018-08-09T17:38:33.708Z,60.20
2018-08-09T17:41:07.229Z,59.80
2018-08-09T17:43:40.757Z,60.20
2018-08-09T17:46:14.362Z,59.70
2018-08-09T17:48:47.859Z,59.70
2018-08-09T17:51:21.389Z,60.30
2018-08-09T17:53:54.809Z,60.50
2018-08-09T17:56:28.353Z,61.20
2018-08-09T17:59:01.794Z,61.60
2018-08-09T18:01:35.293Z,61.80
2018-08-09T18:04:08.852Z,63.10
2018-08-09T18:06:42.411Z,64.30
2018-08-09T18:09:15.852Z,66.30
2018-08-09T18:11:49.321Z,66.30
2018-08-09T18:14:22.841Z,65.90
2018-08-09T18:16:56.321Z,64.30
2018-08-09T18:19:29.827Z,59.00
2018-08-09T18:22:03.284Z,58.80
2018-08-09T18:24:36.769Z,59.10
2018-08-09T18:27:10.367Z,64.60
2018-08-09T18:29:43.897Z,63.90
2018-08-09T18:32:17.389Z,63.60
2018-08-09T18:34:50.869Z,67.40
2018-08-09T18:37:24.381Z,65.40
2018-08-09T18:39:57.863Z,71.40
2018-08-09T18:42:31.368Z,71.00
2018-08-09T18:45:05.952Z,70.60
2018-08-09T18:47:39.763Z,74.10
2018-08-09T18:50:15.117Z,76.90
2018-08-09T18:52:48.664Z,79.00
2018-08-09T18:55:22.208Z,80.10
2018-08-09T18:57:55.677Z,79.80
2018-08-09T19:00:30.325Z,77.60
2018-08-09T19:03:03.851Z,76.80
2018-08-09T19:05:37.409Z,80.00
2018-08-09T19:08:10.851Z,80.00
2018-08-09T19:10:44.402Z,81.50
2018-08-09T19:13:17.872Z,82.50
2018-08-09T19:15:51.331Z,83.20
2018-08-09T19:18:24.801Z,83.10
2018-08-09T19:20:58.403Z,82.30
2018-08-09T19:23:31.932Z,84.30
2018-08-09T19:26:05.454Z,84.10
2018-08-09T19:28:38.964Z,84.00
2018-08-09T19:31:12.541Z,85.40
2018-08-09T19:33:46.028Z,84.60
2018-08-09T19:36:19.635Z,80.90
2018-08-09T19:38:53.196Z,77.80
2018-08-09T19:41:26.642Z,81.10
2018-08-09T19:44:00.151Z,82.30
2018-08-09T19:46:33.814Z,80.10
2018-08-09T19:49:07.379Z,81.50
2018-08-09T19:51:40.911Z,81.50
2018-08-09T19:54:14.535Z,80.70
2018-08-09T19:56:48.030Z,81.20
2018-08-09T19:59:21.571Z,82.30
2018-08-09T20:01:55.121Z,80.60
2018-08-09T20:04:28.617Z,80.40
2018-08-09T20:07:02.060Z,77.60
2018-08-09T20:09:35.568Z,77.80
2018-08-09T20:12:09.084Z,78.20
2018-08-09T20:14:42.600Z,77.40
2018-08-09T20:17:16.175Z,78.20
2018-08-09T20:19:49.634Z,78.00
2018-08-09T20:22:23.061Z,77.10
2018-08-09T20:24:56.568Z,78.50
2018-08-09T20:27:30.034Z,78.00
2018-08-09T20:30:04.695Z,78.80
2018-08-09T20:32:38.563Z,79.10
2018-08-09T20:35:14.578Z,79.50
2018-08-09T20:37:48.404Z,80.50
2018-08-09T20:40:23.072Z,80.20
2018-08-09T20:42:56.612Z,80.60
2018-08-09T20:45:30.179Z,81.10
2018-08-09T20:48:03.700Z,81.20
2018-08-09T20:50:37.240Z,81.40
2018-08-09T20:53:10.688Z,81.30
2018-08-09T20:55:44.185Z,81.90
2018-08-09T20:58:17.641Z,82.10
2018-08-09T21:00:51.144Z,82.20
2018-08-09T21:03:24.670Z,82.50
2018-08-09T21:05:58.197Z,82.20
2018-08-09T21:08:31.719Z,82.30
2018-08-09T21:11:05.222Z,82.10
2018-08-09T21:13:38.710Z,82.60
2018-08-09T21:16:12.200Z,82.20
2018-08-09T21:18:45.665Z,82.30
2018-08-09T21:21:19.223Z,81.90
2018-08-09T21:23:52.750Z,82.50
2018-08-09T21:26:26.314Z,82.00
2018-08-09T21:28:59.882Z,82.30
2018-08-09T21:31:33.367Z,82.20
2018-08-09T21:34:06.830Z,82.20
2018-08-09T21:36:47.066Z,82.30
2018-08-09T21:39:20.580Z,82.40
2018-08-09T21:41:54.012Z,82.80
2018-08-09T21:44:30.379Z,83.40
2018-08-09T21:47:03.794Z,84.00
2018-08-09T21:49:37.314Z,83.80
2018-08-09T21:52:10.733Z,84.60
2018-08-09T21:54:44.190Z,85.10
2018-08-09T21:57:17.680Z,85.40
2018-08-09T21:59:51.176Z,86.00
2018-08-09T22:02:24.636Z,86.30
2018-08-09T22:05:03.333Z,86.60
2018-08-09T22:07:42.225Z,86.40
2018-08-09T22:10:21.057Z,87.00
2018-08-09T22:12:59.782Z,86.80
2018-08-09T22:16:36.332Z,87.10
2018-08-09T22:19:15.181Z,86.70
2018-08-09T22:21:53.889Z,87.30
2018-08-09T22:24:27.340Z,87.60
2018-08-09T22:27:00.834Z,87.30
2018-08-09T22:29:34.246Z,87.20
2018-08-09T22:32:07.751Z,87.60
2018-08-09T22:34:41.238Z,87.40
2018-08-09T22:37:14.717Z,87.80
2018-08-09T22:39:48.168Z,87.90
2018-08-09T22:42:21.678Z,88.10
2018-08-09T22:44:55.136Z,88.30
2018-08-09T22:47:28.963Z,88.70
2018-08-09T22:50:02.452Z,88.70
2018-08-09T22:52:35.887Z,88.50
2018-08-09T22:55:09.320Z,88.80
2018-08-09T22:57:42.812Z,88.60
2018-08-09T23:00:21.801Z,88.50
2018-08-09T23:02:55.255Z,88.00
2018-08-09T23:05:28.769Z,87.70
2018-08-09T23:08:02.182Z,87.70
2018-08-09T23:10:35.668Z,87.60
2018-08-09T23:13:10.076Z,87.60
2018-08-09T23:15:44.304Z,86.90
2018-08-09T23:18:17.723Z,87.30
2018-08-09T23:20:51.232Z,87.40
2018-08-09T23:23:24.676Z,87.80
2018-08-09T23:25:58.125Z,87.90
2018-08-09T23:28:31.597Z,87.90
2018-08-09T23:31:05.049Z,87.70
2018-08-09T23:33:38.536Z,87.30
2018-08-09T23:36:12.012Z,87.30
2018-08-09T23:38:45.488Z,87.90
2018-08-09T23:41:18.915Z,87.00
2018-08-09T23:43:52.358Z,87.20
2018-08-09T23:46:25.833Z,87.10
2018-08-09T23:48:59.301Z,86.30
2018-08-09T23:51:32.743Z,86.40
2018-08-09T23:54:06.220Z,86.80
2018-08-09T23:56:39.684Z,85.60
2018-08-09T23:59:13.119Z,85.70
